Date,TemperatureHighF,TemperatureAvgF,TemperatureLowF,DewpointHighF,DewpointAvgF,DewpointLowF,HumidityHigh,HumidityAvg,HumidityLow,PressureMaxIn,PressureMinIn,WindSpeedMaxMPH,WindSpeedAvgMPH,GustSpeedMaxMPH,PrecipitationSumIn
2013-2-1,-4.9,-15.5,-27.9,-10.1,-22.4,-35.7,80,70,63,28.95,28.78,6,0,6,0.00
2013-2-2,4.3,-7.2,-20.7,0.0,-12.5,-27.1,82,77,71,28.91,28.69,10,1,13,0.00
2013-2-3,4.8,-0.1,-4.1,0.1,-5.8,-9.5,82,76,69,28.81,28.76,8,0,10,0.00
2013-2-4,11.4,3.0,-12.6,8.2,-1.0,-18.0,90,83,76,28.76,28.32,11,1,14,0.00
2013-2-5,7.8,0.1,-6.5,5.2,-5.2,-11.1,89,78,69,28.80,28.41,6,0,9,0.00
2013-2-6,14.7,8.0,1.7,9.0,3.0,-3.8,84,80,75,28.95,28.66,7,1,9,0.00
2013-2-7,12.6,5.5,-1.5,5.9,-0.1,-5.9,84,77,67,29.05,28.94,6,0,7,0.00
2013-2-8,22.8,11.8,-2.6,19.0,8.8,-7.0,93,87,80,29.01,28.72,20,3,20,0.00
2013-2-9,25.9,23.5,20.5,24.6,22.7,18.5,99,96,92,28.72,28.60,13,4,15,0.00
2013-2-10,29.2,25.1,23.1,27.5,23.8,20.5,100,95,89,28.62,28.55,16,2,19,0.00
2013-2-11,23.4,16.8,13.2,20.5,13.4,10.1,92,87,77,28.70,28.50,13,2,15,0.00
2013-2-12,30.9,18.2,10.7,26.3,15.2,8.3,91,88,80,28.50,28.36,13,2,13,0.00
2013-2-13,33.4,20.0,10.2,28.7,16.7,6.4,97,87,74,28.60,28.34,8,0,13,0.05
2013-2-14,14.8,7.1,2.5,8.2,2.4,-1.5,84,81,68,28.99,28.59,8,1,8,0.00
2013-2-15,15.3,4.1,-7.5,10.2,-0.4,-11.9,87,81,75,29.05,28.91,11,1,14,0.00
2013-2-16,18.2,7.5,-5.1,14.0,3.5,-9.4,90,83,80,28.91,28.55,16,3,20,0.00
2013-2-17,28.0,23.4,16.4,26.5,22.2,14.0,100,95,90,28.54,28.17,22,5,22,0.00
2013-2-18,23.5,4.5,-6.7,23.3,0.6,-14.5,99,83,68,28.99,28.33,18,5,25,0.00
2013-2-19,-1.0,-7.2,-13.9,-12.4,-16.9,-21.7,68,62,54,29.28,28.99,15,2,15,0.00
2013-2-20,6.1,-3.3,-14.0,-4.1,-13.0,-21.1,70,63,53,29.28,29.11,5,0,9,0.00
2013-2-21,18.1,9.0,4.9,6.3,-0.5,-5.4,76,65,52,29.14,28.98,8,1,8,0.00
2013-2-22,21.5,12.1,3.8,12.6,6.2,-1.8,88,77,66,28.98,28.65,4,0,6,0.00
2013-2-23,24.0,17.8,11.9,22.1,15.9,8.3,97,92,84,28.65,28.57,10,1,10,0.00
2013-2-24,22.6,17.5,11.4,19.8,15.2,9.8,96,90,79,28.74,28.64,10,2,15,0.00
2013-2-25,30.9,18.5,5.6,24.2,15.4,3.1,95,88,73,28.72,28.63,14,2,15,0.00
2013-2-26,28.3,19.6,12.6,21.3,15.8,10.2,92,85,73,28.84,28.64,12,2,12,0.00
2013-2-27,31.6,22.8,8.3,25.6,18.8,5.7,96,85,76,29.03,28.82,13,2,18,0.00
2013-2-28,28.4,19.6,12.6,19.3,12.8,8.4,84,75,58,29.12,29.03,8,1,12,0.00